VOI1180 MMGL-MMHO
Flight info
| Callsign | VOI1180 |
|---|---|
| Flight time | 1h 48m |
| Altitude | 34000 |
| Route | SEDEM1B SEDEM UJ3 MZT UJ7 CEN DCT NABLA |
| Aircraft | A320/M-SDE3FGHIRWY/LB1 |
Departure
| Time | 2026-04-22 01:24 |
|---|---|
| Airport | Guadalajara International Airport (MMGL) |
Arrival
| Time | 2026-04-22 03:13 |
|---|---|
| Airport | General Ignacio L. Pesqueira International Airport (MMHO) |
| Time | Latitude | Longitude | Altitude | Speed | Heading |
|---|---|---|---|---|---|
| 2026-04-22 00:49 | 20.52450 | -103.30125 | 5029 ft | 0 kts | 19° |
| 2026-04-22 01:11 | 20.52449 | -103.30125 | 5029 ft | 2 kts | 19° |
| 2026-04-22 01:11 | 20.52433 | -103.30131 | 5026 ft | 3 kts | 19° |
| 2026-04-22 01:11 | 20.52417 | -103.30138 | 5026 ft | 3 kts | 49° |
| 2026-04-22 01:12 | 20.52409 | -103.30149 | 5029 ft | 0 kts | 92° |
| 2026-04-22 01:15 | 20.52407 | -103.30145 | 5029 ft | 1 kts | 116° |
| 2026-04-22 01:15 | 20.52392 | -103.30124 | 5027 ft | 6 kts | 128° |
| 2026-04-22 01:15 | 20.52379 | -103.30104 | 5029 ft | 3 kts | 117° |
| 2026-04-22 01:16 | 20.52370 | -103.30082 | 5029 ft | 4 kts | 113° |
| 2026-04-22 01:16 | 20.52365 | -103.30068 | 5029 ft | 1 kts | 112° |
| 2026-04-22 01:16 | 20.52361 | -103.30059 | 5026 ft | 2 kts | 112° |
| 2026-04-22 01:16 | 20.52358 | -103.30054 | 5027 ft | 1 kts | 118° |
| 2026-04-22 01:17 | 20.52343 | -103.30038 | 5029 ft | 6 kts | 146° |
| 2026-04-22 01:17 | 20.52287 | -103.30035 | 5029 ft | 9 kts | 195° |
| 2026-04-22 01:17 | 20.52246 | -103.30049 | 5029 ft | 6 kts | 197° |
| 2026-04-22 01:17 | 20.52201 | -103.30063 | 5028 ft | 7 kts | 190° |
| 2026-04-22 01:18 | 20.52168 | -103.30030 | 5028 ft | 7 kts | 112° |
| 2026-04-22 01:18 | 20.52155 | -103.29996 | 5028 ft | 4 kts | 112° |
| 2026-04-22 01:18 | 20.52142 | -103.29964 | 5028 ft | 5 kts | 112° |
| 2026-04-22 01:18 | 20.52127 | -103.29925 | 5027 ft | 6 kts | 112° |
| 2026-04-22 01:19 | 20.52107 | -103.29880 | 5029 ft | 7 kts | 115° |
| 2026-04-22 01:19 | 20.52085 | -103.29831 | 5026 ft | 8 kts | 115° |
| 2026-04-22 01:19 | 20.52063 | -103.29780 | 5029 ft | 8 kts | 115° |
| 2026-04-22 01:19 | 20.52038 | -103.29724 | 5029 ft | 8 kts | 115° |
| 2026-04-22 01:20 | 20.52019 | -103.29683 | 5029 ft | 5 kts | 115° |
| 2026-04-22 01:20 | 20.52003 | -103.29646 | 5029 ft | 6 kts | 115° |
| 2026-04-22 01:20 | 20.51986 | -103.29604 | 5029 ft | 6 kts | 113° |
| 2026-04-22 01:20 | 20.51971 | -103.29567 | 5027 ft | 5 kts | 113° |
| 2026-04-22 01:21 | 20.51964 | -103.29552 | 5030 ft | 1 kts | 117° |
| 2026-04-22 01:21 | 20.51957 | -103.29542 | 5030 ft | 2 kts | 131° |
| 2026-04-22 01:21 | 20.51943 | -103.29534 | 5030 ft | 2 kts | 160° |
| 2026-04-22 01:21 | 20.51927 | -103.29534 | 5030 ft | 2 kts | 188° |
| 2026-04-22 01:22 | 20.51911 | -103.29539 | 5030 ft | 2 kts | 196° |
| 2026-04-22 01:22 | 20.51887 | -103.29549 | 5030 ft | 5 kts | 201° |
| 2026-04-22 01:22 | 20.51855 | -103.29562 | 5030 ft | 5 kts | 201° |
| 2026-04-22 01:22 | 20.51825 | -103.29583 | 5028 ft | 5 kts | 233° |
| 2026-04-22 01:23 | 20.51824 | -103.29622 | 5030 ft | 6 kts | 287° |
| 2026-04-22 01:23 | 20.51856 | -103.29715 | 5030 ft | 38 kts | 296° |
| 2026-04-22 01:23 | 20.52066 | -103.30206 | 5026 ft | 105 kts | 294° |
| 2026-04-22 01:23 | 20.52431 | -103.31097 | 5028 ft | 155 kts | 293° |
| 2026-04-22 01:24 | 20.52923 | -103.32230 | 5385 ft | 175 kts | 296° |
| 2026-04-22 01:24 | 20.53487 | -103.33413 | 6047 ft | 181 kts | 293° |
| 2026-04-22 01:24 | 20.53991 | -103.34627 | 6534 ft | 178 kts | 291° |
| 2026-04-22 01:24 | 20.54469 | -103.35878 | 6786 ft | 190 kts | 291° |
| 2026-04-22 01:25 | 20.54988 | -103.37246 | 6927 ft | 208 kts | 291° |
| 2026-04-22 01:25 | 20.55558 | -103.38730 | 7111 ft | 224 kts | 291° |
| 2026-04-22 01:25 | 20.56168 | -103.40293 | 7600 ft | 230 kts | 291° |
| 2026-04-22 01:25 | 20.56794 | -103.41878 | 8167 ft | 234 kts | 292° |
| 2026-04-22 01:26 | 20.57441 | -103.43501 | 8704 ft | 241 kts | 291° |
| 2026-04-22 01:26 | 20.58103 | -103.45153 | 9380 ft | 242 kts | 292° |
| 2026-04-22 01:26 | 20.58823 | -103.46772 | 10043 ft | 244 kts | 303° |
| 2026-04-22 01:26 | 20.60035 | -103.48174 | 10269 ft | 265 kts | 316° |
| 2026-04-22 01:27 | 20.61474 | -103.49494 | 10589 ft | 281 kts | 320° |
| 2026-04-22 01:27 | 20.63023 | -103.50839 | 11020 ft | 290 kts | 320° |
| 2026-04-22 01:27 | 20.64591 | -103.52201 | 11621 ft | 293 kts | 320° |
| 2026-04-22 01:27 | 20.66166 | -103.53593 | 12220 ft | 295 kts | 319° |
| 2026-04-22 01:28 | 20.67731 | -103.55005 | 12715 ft | 301 kts | 319° |
| 2026-04-22 01:28 | 20.69328 | -103.56474 | 13258 ft | 305 kts | 319° |
| 2026-04-22 01:28 | 20.70947 | -103.57976 | 13806 ft | 310 kts | 318° |
| 2026-04-22 01:28 | 20.72581 | -103.59498 | 14300 ft | 313 kts | 318° |
| 2026-04-22 01:29 | 20.74226 | -103.61035 | 14840 ft | 314 kts | 318° |
| 2026-04-22 01:29 | 20.75878 | -103.62579 | 15371 ft | 316 kts | 317° |
| 2026-04-22 01:29 | 20.77564 | -103.64158 | 15625 ft | 330 kts | 318° |
| 2026-04-22 01:29 | 20.79338 | -103.65822 | 15753 ft | 347 kts | 317° |
| 2026-04-22 01:30 | 20.81191 | -103.67558 | 15895 ft | 361 kts | 318° |
| 2026-04-22 01:30 | 20.83099 | -103.69341 | 16258 ft | 367 kts | 317° |
| 2026-04-22 01:30 | 20.85035 | -103.71146 | 16726 ft | 371 kts | 318° |
| 2026-04-22 01:30 | 20.86992 | -103.72973 | 17195 ft | 374 kts | 317° |
| 2026-04-22 01:31 | 20.88929 | -103.74786 | 17702 ft | 376 kts | 317° |
| 2026-04-22 01:31 | 20.90897 | -103.76630 | 18215 ft | 378 kts | 318° |
| 2026-04-22 01:31 | 20.92881 | -103.78488 | 18638 ft | 381 kts | 317° |
| 2026-04-22 01:31 | 20.94886 | -103.80363 | 19049 ft | 384 kts | 317° |
| 2026-04-22 01:32 | 20.96898 | -103.82244 | 19531 ft | 386 kts | 317° |
| 2026-04-22 01:32 | 20.98923 | -103.84139 | 19998 ft | 387 kts | 317° |
| 2026-04-22 01:32 | 21.00959 | -103.86048 | 20475 ft | 390 kts | 317° |
| 2026-04-22 01:32 | 21.03003 | -103.87966 | 20930 ft | 392 kts | 317° |
| 2026-04-22 01:33 | 21.05056 | -103.89893 | 21410 ft | 394 kts | 317° |
| 2026-04-22 01:33 | 21.07122 | -103.91831 | 21869 ft | 395 kts | 317° |
| 2026-04-22 01:33 | 21.09194 | -103.93777 | 22329 ft | 397 kts | 317° |
| 2026-04-22 01:33 | 21.11264 | -103.95754 | 22819 ft | 398 kts | 315° |
| 2026-04-22 01:34 | 21.13256 | -103.97814 | 22999 ft | 398 kts | 313° |
| 2026-04-22 01:34 | 21.15185 | -103.99944 | 23036 ft | 398 kts | 311° |
| 2026-04-22 01:34 | 21.17074 | -104.02097 | 23035 ft | 396 kts | 311° |
| 2026-04-22 01:34 | 21.18963 | -104.04270 | 23247 ft | 399 kts | 311° |
| 2026-04-22 01:35 | 21.20869 | -104.06448 | 23728 ft | 402 kts | 311° |
| 2026-04-22 01:35 | 21.22791 | -104.08614 | 24140 ft | 401 kts | 311° |
| 2026-04-22 01:35 | 21.24710 | -104.10747 | 24513 ft | 403 kts | 311° |
| 2026-04-22 01:35 | 21.26668 | -104.12909 | 24869 ft | 404 kts | 312° |
| 2026-04-22 01:36 | 21.28631 | -104.15075 | 25242 ft | 406 kts | 311° |
| 2026-04-22 01:36 | 21.30600 | -104.17250 | 25590 ft | 407 kts | 311° |
| 2026-04-22 01:36 | 21.32581 | -104.19440 | 25898 ft | 409 kts | 311° |
| 2026-04-22 01:36 | 21.34569 | -104.21641 | 26210 ft | 411 kts | 311° |
| 2026-04-22 01:37 | 21.36564 | -104.23856 | 26559 ft | 413 kts | 311° |
| 2026-04-22 01:37 | 21.38559 | -104.26074 | 26894 ft | 414 kts | 311° |
| 2026-04-22 01:37 | 21.40561 | -104.28303 | 27213 ft | 416 kts | 311° |
| 2026-04-22 01:37 | 21.42573 | -104.30542 | 27556 ft | 418 kts | 311° |
| 2026-04-22 01:38 | 21.44599 | -104.32793 | 27890 ft | 420 kts | 311° |
| 2026-04-22 01:38 | 21.46629 | -104.35049 | 28232 ft | 422 kts | 311° |
| 2026-04-22 01:38 | 21.48645 | -104.37292 | 28553 ft | 423 kts | 311° |
| 2026-04-22 01:38 | 21.50693 | -104.39573 | 28859 ft | 424 kts | 311° |
| 2026-04-22 01:39 | 21.52743 | -104.41854 | 29120 ft | 425 kts | 311° |
| 2026-04-22 01:39 | 21.54800 | -104.44147 | 29411 ft | 426 kts | 311° |
| 2026-04-22 01:39 | 21.56853 | -104.46437 | 29937 ft | 424 kts | 310° |
| 2026-04-22 01:39 | 21.58892 | -104.48714 | 30389 ft | 422 kts | 310° |
| 2026-04-22 01:40 | 21.60926 | -104.50980 | 30775 ft | 421 kts | 310° |
| 2026-04-22 01:40 | 21.62957 | -104.53244 | 31171 ft | 420 kts | 310° |
| 2026-04-22 01:40 | 21.64984 | -104.55505 | 31573 ft | 418 kts | 310° |
| 2026-04-22 01:40 | 21.66975 | -104.57732 | 31959 ft | 417 kts | 310° |
| 2026-04-22 01:41 | 21.68987 | -104.59987 | 32344 ft | 416 kts | 310° |
| 2026-04-22 01:41 | 21.70996 | -104.62237 | 32741 ft | 415 kts | 310° |
| 2026-04-22 01:41 | 21.72996 | -104.64470 | 33129 ft | 413 kts | 310° |
| 2026-04-22 01:41 | 21.74990 | -104.66696 | 33516 ft | 412 kts | 310° |
| 2026-04-22 01:42 | 21.76978 | -104.68918 | 33897 ft | 412 kts | 310° |
| 2026-04-22 01:42 | 21.78967 | -104.71140 | 34036 ft | 413 kts | 310° |
| 2026-04-22 01:42 | 21.82940 | -104.75594 | 34048 ft | 415 kts | 309° |
| 2026-04-22 01:43 | 21.86941 | -104.80089 | 34035 ft | 415 kts | 309° |
| 2026-04-22 01:43 | 21.90920 | -104.84566 | 34037 ft | 415 kts | 309° |
| 2026-04-22 01:44 | 21.94948 | -104.89084 | 34046 ft | 415 kts | 309° |
| 2026-04-22 01:44 | 21.98924 | -104.93546 | 34034 ft | 416 kts | 309° |
| 2026-04-22 01:45 | 22.02921 | -104.98049 | 34037 ft | 416 kts | 309° |
| 2026-04-22 01:45 | 22.06918 | -105.02560 | 34037 ft | 415 kts | 309° |
| 2026-04-22 01:46 | 22.10264 | -105.06336 | 34058 ft | 415 kts | 309° |
| 2026-04-22 01:46 | 22.14236 | -105.10814 | 34047 ft | 415 kts | 309° |
| 2026-04-22 01:47 | 22.18226 | -105.15329 | 34037 ft | 415 kts | 309° |
| 2026-04-22 01:47 | 22.22212 | -105.19834 | 34040 ft | 415 kts | 309° |
| 2026-04-22 01:48 | 22.26195 | -105.24335 | 34023 ft | 415 kts | 309° |
| 2026-04-22 01:48 | 22.30180 | -105.28838 | 34014 ft | 414 kts | 309° |
| 2026-04-22 01:49 | 22.34133 | -105.33318 | 34017 ft | 415 kts | 309° |
| 2026-04-22 01:49 | 22.38113 | -105.37837 | 34030 ft | 415 kts | 309° |
| 2026-04-22 01:50 | 22.42087 | -105.42355 | 34022 ft | 415 kts | 309° |
| 2026-04-22 01:50 | 22.46063 | -105.46876 | 34021 ft | 414 kts | 309° |
| 2026-04-22 01:51 | 22.50031 | -105.51388 | 34003 ft | 414 kts | 309° |
| 2026-04-22 01:51 | 22.53992 | -105.55906 | 34000 ft | 414 kts | 309° |
| 2026-04-22 01:52 | 22.57957 | -105.60418 | 34004 ft | 414 kts | 309° |
| 2026-04-22 01:52 | 22.61922 | -105.64935 | 33999 ft | 414 kts | 309° |
| 2026-04-22 01:53 | 22.65879 | -105.69454 | 34015 ft | 413 kts | 309° |
| 2026-04-22 01:53 | 22.69831 | -105.73974 | 34011 ft | 413 kts | 309° |
| 2026-04-22 01:54 | 22.73775 | -105.78479 | 34014 ft | 412 kts | 309° |
| 2026-04-22 01:54 | 22.77715 | -105.82988 | 34011 ft | 412 kts | 309° |
| 2026-04-22 01:55 | 22.81650 | -105.87493 | 34007 ft | 411 kts | 309° |
| 2026-04-22 01:55 | 22.85587 | -105.92008 | 34007 ft | 411 kts | 309° |
| 2026-04-22 01:56 | 22.89486 | -105.96491 | 34008 ft | 411 kts | 308° |
| 2026-04-22 01:56 | 22.93410 | -106.01000 | 34029 ft | 411 kts | 309° |
| 2026-04-22 01:57 | 22.97336 | -106.05514 | 34031 ft | 410 kts | 309° |
| 2026-04-22 01:57 | 23.01253 | -106.10014 | 34034 ft | 409 kts | 308° |
| 2026-04-22 01:58 | 23.05156 | -106.14507 | 34036 ft | 409 kts | 308° |
| 2026-04-22 01:58 | 23.09050 | -106.19008 | 34037 ft | 408 kts | 308° |
| 2026-04-22 01:59 | 23.12920 | -106.23474 | 34034 ft | 408 kts | 308° |
| 2026-04-22 01:59 | 23.17005 | -106.27792 | 34030 ft | 414 kts | 319° |
| 2026-04-22 02:00 | 23.21780 | -106.31331 | 34039 ft | 415 kts | 320° |
| 2026-04-22 02:00 | 23.26547 | -106.34857 | 34034 ft | 415 kts | 320° |
| 2026-04-22 02:01 | 23.31298 | -106.38394 | 34024 ft | 414 kts | 320° |
| 2026-04-22 02:01 | 23.36051 | -106.41930 | 34024 ft | 413 kts | 320° |
| 2026-04-22 02:02 | 23.40794 | -106.45458 | 34021 ft | 413 kts | 320° |
| 2026-04-22 02:02 | 23.45560 | -106.49003 | 34020 ft | 413 kts | 320° |
| 2026-04-22 02:03 | 23.50284 | -106.52515 | 34034 ft | 413 kts | 320° |
| 2026-04-22 02:03 | 23.55019 | -106.56044 | 34026 ft | 412 kts | 320° |
| 2026-04-22 02:04 | 23.62099 | -106.61336 | 34020 ft | 411 kts | 320° |
| 2026-04-22 02:05 | 23.66822 | -106.64868 | 34020 ft | 411 kts | 320° |
| 2026-04-22 02:05 | 23.71533 | -106.68394 | 34020 ft | 411 kts | 320° |
| 2026-04-22 02:06 | 23.76265 | -106.71940 | 34015 ft | 411 kts | 320° |
| 2026-04-22 02:06 | 23.80941 | -106.75450 | 34014 ft | 411 kts | 320° |
| 2026-04-22 02:07 | 23.85668 | -106.78993 | 34016 ft | 411 kts | 320° |
| 2026-04-22 02:07 | 23.90376 | -106.82527 | 34015 ft | 411 kts | 320° |
| 2026-04-22 02:08 | 23.95079 | -106.86067 | 34018 ft | 411 kts | 320° |
| 2026-04-22 02:08 | 23.99795 | -106.89620 | 34019 ft | 411 kts | 320° |
| 2026-04-22 02:09 | 24.04516 | -106.93170 | 34023 ft | 412 kts | 320° |
| 2026-04-22 02:09 | 24.09236 | -106.96716 | 34040 ft | 411 kts | 320° |
| 2026-04-22 02:10 | 24.13952 | -107.00270 | 34034 ft | 411 kts | 320° |
| 2026-04-22 02:10 | 24.18659 | -107.03822 | 34032 ft | 411 kts | 320° |
| 2026-04-22 02:11 | 24.23361 | -107.07375 | 34030 ft | 410 kts | 320° |
| 2026-04-22 02:11 | 24.28063 | -107.10927 | 34029 ft | 410 kts | 320° |
| 2026-04-22 02:12 | 24.32736 | -107.14458 | 34027 ft | 410 kts | 320° |
| 2026-04-22 02:12 | 24.37437 | -107.18017 | 34044 ft | 410 kts | 320° |
| 2026-04-22 02:13 | 24.42129 | -107.21587 | 34037 ft | 410 kts | 320° |
| 2026-04-22 02:13 | 24.46823 | -107.25153 | 34035 ft | 410 kts | 320° |
| 2026-04-22 02:14 | 24.51520 | -107.28713 | 34027 ft | 410 kts | 320° |
| 2026-04-22 02:14 | 24.56213 | -107.32289 | 34029 ft | 410 kts | 320° |
| 2026-04-22 02:15 | 24.60910 | -107.35866 | 34032 ft | 410 kts | 320° |
| 2026-04-22 02:15 | 24.65570 | -107.39417 | 34063 ft | 410 kts | 320° |
| 2026-04-22 02:16 | 24.70293 | -107.43017 | 34060 ft | 410 kts | 320° |
| 2026-04-22 02:16 | 24.74952 | -107.46582 | 34056 ft | 410 kts | 320° |
| 2026-04-22 02:17 | 24.79561 | -107.50268 | 34050 ft | 408 kts | 317° |
| 2026-04-22 02:17 | 24.83986 | -107.54184 | 34053 ft | 407 kts | 316° |
| 2026-04-22 02:18 | 24.88401 | -107.58151 | 34044 ft | 408 kts | 316° |
| 2026-04-22 02:18 | 24.92801 | -107.62034 | 34056 ft | 408 kts | 316° |
| 2026-04-22 02:19 | 24.97269 | -107.65932 | 34038 ft | 408 kts | 317° |
| 2026-04-22 02:19 | 25.01704 | -107.69793 | 34030 ft | 408 kts | 317° |
| 2026-04-22 02:20 | 25.06132 | -107.73671 | 34027 ft | 407 kts | 316° |
| 2026-04-22 02:20 | 25.10587 | -107.77587 | 34021 ft | 407 kts | 316° |
| 2026-04-22 02:21 | 25.15024 | -107.81482 | 34020 ft | 408 kts | 316° |
| 2026-04-22 02:21 | 25.19471 | -107.85380 | 34039 ft | 408 kts | 316° |
| 2026-04-22 02:22 | 25.23916 | -107.89282 | 34030 ft | 409 kts | 316° |
| 2026-04-22 02:22 | 25.28330 | -107.93170 | 34031 ft | 408 kts | 316° |
| 2026-04-22 02:23 | 25.32780 | -107.97090 | 34032 ft | 408 kts | 316° |
| 2026-04-22 02:23 | 25.37223 | -108.01013 | 34033 ft | 408 kts | 316° |
| 2026-04-22 02:24 | 25.41661 | -108.04929 | 34028 ft | 408 kts | 316° |
| 2026-04-22 02:24 | 25.46105 | -108.08860 | 34039 ft | 409 kts | 316° |
| 2026-04-22 02:25 | 25.50549 | -108.12794 | 34037 ft | 409 kts | 316° |
| 2026-04-22 02:25 | 25.54966 | -108.16703 | 34032 ft | 409 kts | 316° |
| 2026-04-22 02:26 | 25.59409 | -108.20635 | 34029 ft | 409 kts | 316° |
| 2026-04-22 02:26 | 25.63852 | -108.24583 | 34030 ft | 409 kts | 316° |
| 2026-04-22 02:27 | 25.68296 | -108.28527 | 34033 ft | 409 kts | 316° |
| 2026-04-22 02:27 | 25.72740 | -108.32473 | 34052 ft | 409 kts | 316° |
| 2026-04-22 02:28 | 25.77195 | -108.36436 | 34048 ft | 409 kts | 316° |
| 2026-04-22 02:28 | 25.81604 | -108.40371 | 34041 ft | 408 kts | 316° |
| 2026-04-22 02:29 | 25.86034 | -108.44330 | 34030 ft | 408 kts | 316° |
| 2026-04-22 02:29 | 25.90437 | -108.48262 | 34037 ft | 408 kts | 316° |
| 2026-04-22 02:30 | 25.94864 | -108.52212 | 34034 ft | 408 kts | 316° |
| 2026-04-22 02:30 | 25.99291 | -108.56171 | 34059 ft | 408 kts | 316° |
| 2026-04-22 02:31 | 26.03716 | -108.60136 | 34039 ft | 408 kts | 316° |
| 2026-04-22 02:31 | 26.08143 | -108.64107 | 34037 ft | 409 kts | 316° |
| 2026-04-22 02:32 | 26.12573 | -108.68078 | 34032 ft | 408 kts | 316° |
| 2026-04-22 02:32 | 26.16971 | -108.72033 | 34028 ft | 408 kts | 316° |
| 2026-04-22 02:33 | 26.21390 | -108.76009 | 34031 ft | 408 kts | 316° |
| 2026-04-22 02:33 | 26.25812 | -108.79979 | 34040 ft | 408 kts | 316° |
| 2026-04-22 02:34 | 26.29486 | -108.83291 | 34033 ft | 407 kts | 316° |
| 2026-04-22 02:34 | 26.33891 | -108.87268 | 34036 ft | 407 kts | 316° |
| 2026-04-22 02:35 | 26.38295 | -108.91242 | 34036 ft | 407 kts | 316° |
| 2026-04-22 02:35 | 26.42672 | -108.95195 | 34037 ft | 407 kts | 316° |
| 2026-04-22 02:36 | 26.47068 | -108.99175 | 34036 ft | 406 kts | 316° |
| 2026-04-22 02:36 | 26.51460 | -109.03152 | 34035 ft | 406 kts | 316° |
| 2026-04-22 02:37 | 26.55854 | -109.07129 | 34044 ft | 407 kts | 316° |
| 2026-04-22 02:37 | 26.60220 | -109.11086 | 34043 ft | 406 kts | 316° |
| 2026-04-22 02:38 | 26.64603 | -109.15073 | 34038 ft | 406 kts | 316° |
| 2026-04-22 02:38 | 26.68984 | -109.19058 | 34041 ft | 406 kts | 316° |
| 2026-04-22 02:39 | 26.73367 | -109.23038 | 34063 ft | 406 kts | 316° |
| 2026-04-22 02:39 | 26.77750 | -109.27021 | 34049 ft | 405 kts | 316° |
| 2026-04-22 02:40 | 26.82113 | -109.31010 | 34040 ft | 405 kts | 316° |
| 2026-04-22 02:40 | 26.86484 | -109.35005 | 34039 ft | 405 kts | 316° |
| 2026-04-22 02:41 | 26.90847 | -109.38992 | 34033 ft | 405 kts | 316° |
| 2026-04-22 02:41 | 26.95209 | -109.42978 | 34028 ft | 405 kts | 316° |
| 2026-04-22 02:42 | 26.99573 | -109.46967 | 34037 ft | 405 kts | 316° |
| 2026-04-22 02:42 | 27.03929 | -109.50963 | 34034 ft | 405 kts | 316° |
| 2026-04-22 02:43 | 27.08288 | -109.54961 | 34027 ft | 405 kts | 316° |
| 2026-04-22 02:43 | 27.12642 | -109.58971 | 34026 ft | 405 kts | 316° |
| 2026-04-22 02:44 | 27.16964 | -109.62955 | 34029 ft | 405 kts | 316° |
| 2026-04-22 02:44 | 27.21318 | -109.66966 | 34023 ft | 405 kts | 316° |
| 2026-04-22 02:45 | 27.25676 | -109.70977 | 34049 ft | 405 kts | 316° |
| 2026-04-22 02:45 | 27.30045 | -109.75011 | 34043 ft | 405 kts | 316° |
| 2026-04-22 02:46 | 27.34404 | -109.79041 | 34039 ft | 405 kts | 316° |
| 2026-04-22 02:46 | 27.39012 | -109.82743 | 34026 ft | 414 kts | 328° |
| 2026-04-22 02:47 | 27.44612 | -109.84590 | 34016 ft | 428 kts | 345° |
| 2026-04-22 02:47 | 27.50524 | -109.85555 | 34034 ft | 429 kts | 345° |
| 2026-04-22 02:48 | 27.56401 | -109.86517 | 34026 ft | 429 kts | 345° |
| 2026-04-22 02:48 | 27.62320 | -109.87495 | 34024 ft | 430 kts | 345° |
| 2026-04-22 02:49 | 27.68243 | -109.88479 | 34025 ft | 430 kts | 345° |
| 2026-04-22 02:49 | 27.74174 | -109.89467 | 33409 ft | 432 kts | 345° |
| 2026-04-22 02:49 | 27.77100 | -109.89949 | 32934 ft | 418 kts | 345° |
| 2026-04-22 02:50 | 27.79933 | -109.90408 | 32449 ft | 404 kts | 345° |
| 2026-04-22 02:50 | 27.82672 | -109.90850 | 31997 ft | 392 kts | 345° |
| 2026-04-22 02:50 | 27.85332 | -109.91287 | 31555 ft | 380 kts | 345° |
| 2026-04-22 02:50 | 27.87932 | -109.91721 | 31127 ft | 378 kts | 345° |
| 2026-04-22 02:51 | 27.90539 | -109.92165 | 30693 ft | 378 kts | 345° |
| 2026-04-22 02:51 | 27.93142 | -109.92609 | 30265 ft | 378 kts | 345° |
| 2026-04-22 02:51 | 27.95749 | -109.93050 | 29792 ft | 379 kts | 345° |
| 2026-04-22 02:51 | 27.98349 | -109.93486 | 29359 ft | 377 kts | 345° |
| 2026-04-22 02:52 | 28.00941 | -109.93916 | 28936 ft | 376 kts | 345° |
| 2026-04-22 02:52 | 28.03527 | -109.94346 | 28536 ft | 375 kts | 346° |
| 2026-04-22 02:52 | 28.06105 | -109.94776 | 28129 ft | 374 kts | 346° |
| 2026-04-22 02:52 | 28.08675 | -109.95205 | 27735 ft | 373 kts | 346° |
| 2026-04-22 02:53 | 28.11240 | -109.95632 | 27334 ft | 372 kts | 346° |
| 2026-04-22 02:53 | 28.13777 | -109.96115 | 26948 ft | 367 kts | 341° |
| 2026-04-22 02:53 | 28.16176 | -109.97009 | 26569 ft | 359 kts | 331° |
| 2026-04-22 02:53 | 28.18354 | -109.98330 | 26205 ft | 352 kts | 322° |
| 2026-04-22 02:54 | 28.20293 | -109.99988 | 25847 ft | 347 kts | 317° |
| 2026-04-22 02:54 | 28.22172 | -110.01691 | 25484 ft | 345 kts | 318° |
| 2026-04-22 02:54 | 28.24018 | -110.03355 | 25127 ft | 343 kts | 318° |
| 2026-04-22 02:54 | 28.25883 | -110.05032 | 24751 ft | 341 kts | 318° |
| 2026-04-22 02:55 | 28.27735 | -110.06696 | 24386 ft | 339 kts | 319° |
| 2026-04-22 02:55 | 28.29581 | -110.08359 | 24013 ft | 338 kts | 319° |
| 2026-04-22 02:55 | 28.31417 | -110.10017 | 23629 ft | 337 kts | 319° |
| 2026-04-22 02:55 | 28.33248 | -110.11672 | 23195 ft | 336 kts | 319° |
| 2026-04-22 02:56 | 28.35069 | -110.13316 | 22808 ft | 334 kts | 319° |
| 2026-04-22 02:56 | 28.36877 | -110.14950 | 22417 ft | 331 kts | 318° |
| 2026-04-22 02:56 | 28.38673 | -110.16577 | 22032 ft | 329 kts | 318° |
| 2026-04-22 02:56 | 28.40464 | -110.18200 | 21637 ft | 328 kts | 318° |
| 2026-04-22 02:57 | 28.42244 | -110.19814 | 21252 ft | 327 kts | 318° |
| 2026-04-22 02:57 | 28.44021 | -110.21426 | 20861 ft | 326 kts | 318° |
| 2026-04-22 02:57 | 28.45795 | -110.23035 | 20470 ft | 326 kts | 318° |
| 2026-04-22 02:57 | 28.47564 | -110.24641 | 20081 ft | 325 kts | 318° |
| 2026-04-22 02:58 | 28.49331 | -110.26247 | 19690 ft | 325 kts | 318° |
| 2026-04-22 02:58 | 28.51098 | -110.27852 | 19297 ft | 325 kts | 318° |
| 2026-04-22 02:58 | 28.52863 | -110.29457 | 18904 ft | 325 kts | 318° |
| 2026-04-22 02:58 | 28.54636 | -110.31070 | 18475 ft | 327 kts | 318° |
| 2026-04-22 02:59 | 28.56386 | -110.32660 | 18099 ft | 325 kts | 318° |
| 2026-04-22 02:59 | 28.58150 | -110.34264 | 17689 ft | 324 kts | 318° |
| 2026-04-22 02:59 | 28.59907 | -110.35861 | 17301 ft | 323 kts | 318° |
| 2026-04-22 02:59 | 28.61652 | -110.37450 | 16913 ft | 321 kts | 318° |
| 2026-04-22 03:00 | 28.63393 | -110.39039 | 16525 ft | 320 kts | 318° |
| 2026-04-22 03:00 | 28.65123 | -110.40622 | 16141 ft | 319 kts | 318° |
| 2026-04-22 03:00 | 28.66848 | -110.42198 | 15759 ft | 318 kts | 319° |
| 2026-04-22 03:00 | 28.68575 | -110.43771 | 15376 ft | 318 kts | 319° |
| 2026-04-22 03:01 | 28.70299 | -110.45341 | 14996 ft | 317 kts | 319° |
| 2026-04-22 03:01 | 28.72020 | -110.46911 | 14618 ft | 317 kts | 319° |
| 2026-04-22 03:01 | 28.73739 | -110.48483 | 14237 ft | 317 kts | 319° |
| 2026-04-22 03:01 | 28.75464 | -110.50048 | 13860 ft | 318 kts | 320° |
| 2026-04-22 03:02 | 28.77201 | -110.51611 | 13561 ft | 319 kts | 319° |
| 2026-04-22 03:02 | 28.78933 | -110.53195 | 13320 ft | 318 kts | 319° |
| 2026-04-22 03:02 | 28.80645 | -110.54770 | 12981 ft | 315 kts | 319° |
| 2026-04-22 03:02 | 28.82346 | -110.56338 | 12597 ft | 314 kts | 319° |
| 2026-04-22 03:03 | 28.84043 | -110.57901 | 12212 ft | 313 kts | 319° |
| 2026-04-22 03:03 | 28.85736 | -110.59460 | 11825 ft | 313 kts | 319° |
| 2026-04-22 03:03 | 28.87429 | -110.61014 | 11431 ft | 312 kts | 319° |
| 2026-04-22 03:03 | 28.89122 | -110.62566 | 11045 ft | 313 kts | 320° |
| 2026-04-22 03:04 | 28.90820 | -110.64121 | 10656 ft | 313 kts | 320° |
| 2026-04-22 03:04 | 28.92518 | -110.65680 | 10268 ft | 313 kts | 319° |
| 2026-04-22 03:04 | 28.94213 | -110.67237 | 10000 ft | 309 kts | 320° |
| 2026-04-22 03:04 | 28.95881 | -110.68769 | 9595 ft | 310 kts | 319° |
| 2026-04-22 03:05 | 28.97557 | -110.70312 | 9288 ft | 307 kts | 320° |
| 2026-04-22 03:05 | 28.99208 | -110.71829 | 8787 ft | 303 kts | 320° |
| 2026-04-22 03:05 | 29.00850 | -110.73336 | 8151 ft | 302 kts | 320° |
| 2026-04-22 03:05 | 29.02481 | -110.74834 | 7534 ft | 300 kts | 320° |
| 2026-04-22 03:06 | 29.04099 | -110.76323 | 7028 ft | 295 kts | 320° |
| 2026-04-22 03:06 | 29.05643 | -110.77746 | 6868 ft | 277 kts | 320° |
| 2026-04-22 03:06 | 29.07125 | -110.79112 | 6495 ft | 271 kts | 320° |
| 2026-04-22 03:06 | 29.08568 | -110.80443 | 6002 ft | 269 kts | 320° |
| 2026-04-22 03:07 | 29.09998 | -110.81759 | 5828 ft | 252 kts | 320° |
| 2026-04-22 03:07 | 29.11332 | -110.82969 | 5624 ft | 236 kts | 323° |
| 2026-04-22 03:07 | 29.12687 | -110.83929 | 5507 ft | 227 kts | 328° |
| 2026-04-22 03:07 | 29.13995 | -110.84827 | 5419 ft | 213 kts | 327° |
| 2026-04-22 03:08 | 29.15255 | -110.85696 | 5036 ft | 213 kts | 327° |
| 2026-04-22 03:08 | 29.16480 | -110.86651 | 4618 ft | 211 kts | 313° |
| 2026-04-22 03:08 | 29.17238 | -110.88031 | 4231 ft | 203 kts | 285° |
| 2026-04-22 03:08 | 29.17372 | -110.89588 | 3780 ft | 195 kts | 259° |
| 2026-04-22 03:09 | 29.16913 | -110.91004 | 3332 ft | 188 kts | 238° |
| 2026-04-22 03:09 | 29.16246 | -110.92231 | 3073 ft | 173 kts | 238° |
| 2026-04-22 03:09 | 29.15668 | -110.93318 | 2963 ft | 151 kts | 237° |
| 2026-04-22 03:09 | 29.15136 | -110.94323 | 2867 ft | 143 kts | 239° |
| 2026-04-22 03:10 | 29.14619 | -110.95298 | 2687 ft | 143 kts | 239° |
| 2026-04-22 03:10 | 29.14103 | -110.96268 | 2469 ft | 141 kts | 241° |
| 2026-04-22 03:10 | 29.13597 | -110.97220 | 2249 ft | 140 kts | 240° |
| 2026-04-22 03:10 | 29.13091 | -110.98174 | 2103 ft | 140 kts | 241° |
| 2026-04-22 03:11 | 29.12577 | -110.99119 | 1856 ft | 139 kts | 239° |
| 2026-04-22 03:11 | 29.12075 | -111.00058 | 1527 ft | 138 kts | 239° |
| 2026-04-22 03:11 | 29.11576 | -111.00996 | 1310 ft | 140 kts | 238° |
| 2026-04-22 03:11 | 29.11069 | -111.01955 | 1064 ft | 142 kts | 238° |
| 2026-04-22 03:12 | 29.10579 | -111.02913 | 917 ft | 139 kts | 239° |
| 2026-04-22 03:12 | 29.09580 | -111.04789 | 637 ft | 133 kts | 239° |
| 2026-04-22 03:12 | 29.09190 | -111.05513 | 629 ft | 58 kts | 239° |
| 2026-04-22 03:13 | 29.09031 | -111.05823 | 622 ft | 43 kts | 238° |
| 2026-04-22 03:13 | 29.08883 | -111.06099 | 627 ft | 35 kts | 238° |
| 2026-04-22 03:13 | 29.08803 | -111.06231 | 620 ft | 14 kts | 208° |
| 2026-04-22 03:13 | 29.08727 | -111.06193 | 621 ft | 12 kts | 126° |
| 2026-04-22 03:14 | 29.08718 | -111.06100 | 616 ft | 12 kts | 84° |
| 2026-04-22 03:14 | 29.08733 | -111.05999 | 623 ft | 13 kts | 65° |
| 2026-04-22 03:14 | 29.08786 | -111.05914 | 619 ft | 14 kts | 62° |
| 2026-04-22 03:14 | 29.08838 | -111.05818 | 624 ft | 15 kts | 57° |
| 2026-04-22 03:15 | 29.08897 | -111.05714 | 624 ft | 16 kts | 57° |
| 2026-04-22 03:15 | 29.08956 | -111.05601 | 625 ft | 17 kts | 60° |
| 2026-04-22 03:15 | 29.09019 | -111.05478 | 627 ft | 18 kts | 59° |
| 2026-04-22 03:15 | 29.09078 | -111.05370 | 623 ft | 13 kts | 58° |
| 2026-04-22 03:16 | 29.09124 | -111.05280 | 631 ft | 14 kts | 58° |
| 2026-04-22 03:16 | 29.09133 | -111.05226 | 629 ft | 6 kts | 130° |
| 2026-04-22 03:16 | 29.09129 | -111.05219 | 629 ft | 0 kts | 116° |
| 2026-04-22 03:16 | 29.09127 | -111.05202 | 632 ft | 3 kts | 95° |
| 2026-04-22 03:17 | 29.09127 | -111.05198 | 631 ft | 2 kts | 95° |
| 2026-04-22 03:17 | 29.09127 | -111.05193 | 629 ft | 2 kts | 95° |
| 2026-04-22 03:18 | 29.09126 | -111.05189 | 630 ft | 1 kts | 95° |
| 2026-04-22 03:18 | 29.09126 | -111.05187 | 629 ft | 1 kts | 95° |
| 2026-04-22 03:19 | 29.09124 | -111.05181 | 628 ft | 1 kts | 114° |
| 2026-04-22 03:20 | 29.09121 | -111.05173 | 627 ft | 2 kts | 110° |
| 2026-04-22 03:20 | 29.09112 | -111.05162 | 630 ft | 1 kts | 152° |
| 2026-04-22 03:20 | 29.09111 | -111.05162 | 630 ft | 0 kts | 153° |
| 2026-04-22 03:20 | 29.09108 | -111.05160 | 629 ft | 0 kts | 153° |